sensor_id;sensor_type;location;lat;lon;timestamp;pressure;altitude;pressure_sealevel;temperature;humidity
11049;BME280;5577;42.706;23.160;2023-04-22T00:00:15;93827.44;;;6.34;100.00
11049;BME280;5577;42.706;23.160;2023-04-22T00:03:02;93842.81;;;6.44;100.00
11049;BME280;5577;42.706;23.160;2023-04-22T00:05:46;93790.81;;;6.05;100.00
11049;BME280;5577;42.706;23.160;2023-04-22T00:08:31;93846.41;;;6.40;100.00
11049;BME280;5577;42.706;23.160;2023-04-22T00:11:15;93847.66;;;6.22;100.00
11049;BME280;5577;42.706;23.160;2023-04-22T00:13:59;93854.94;;;6.04;100.00
11049;BME280;5577;42.706;23.160;2023-04-22T00:16:43;93847.28;;;5.99;100.00
11049;BME280;5577;42.706;23.160;2023-04-22T00:19:27;93851.81;;;5.90;100.00
11049;BME280;5577;42.706;23.160;2023-04-22T00:22:11;93854.59;;;5.93;100.00
11049;BME280;5577;42.706;23.160;2023-04-22T00:24:55;93848.78;;;5.88;100.00
11049;BME280;5577;42.706;23.160;2023-04-22T00:27:39;93847.81;;;5.93;100.00
11049;BME280;5577;42.706;23.160;2023-04-22T00:30:23;93854.81;;;5.88;100.00
11049;BME280;5577;42.706;23.160;2023-04-22T00:33:07;93854.56;;;5.81;100.00
11049;BME280;5577;42.706;23.160;2023-04-22T00:35:51;93851.72;;;5.86;100.00
11049;BME280;5577;42.706;23.160;2023-04-22T00:38:37;93850.84;;;5.82;100.00
11049;BME280;5577;42.706;23.160;2023-04-22T00:41:22;93858.38;;;5.84;100.00
11049;BME280;5577;42.706;23.160;2023-04-22T00:44:08;93799.66;;;5.47;100.00
11049;BME280;5577;42.706;23.160;2023-04-22T00:46:54;93856.56;;;5.76;100.00
11049;BME280;5577;42.706;23.160;2023-04-22T00:49:38;93770.63;;;5.11;100.00
11049;BME280;5577;42.706;23.160;2023-04-22T00:52:22;93857.94;;;5.61;100.00
11049;BME280;5577;42.706;23.160;2023-04-22T00:55:07;93796.69;;;5.28;100.00
11049;BME280;5577;42.706;23.160;2023-04-22T00:57:53;93853.31;;;5.58;100.00
11049;BME280;5577;42.706;23.160;2023-04-22T01:00:37;93853.00;;;5.60;100.00
11049;BME280;5577;42.706;23.160;2023-04-22T01:03:22;93844.34;;;5.59;100.00
11049;BME280;5577;42.706;23.160;2023-04-22T01:06:06;93840.03;;;5.55;100.00
11049;BME280;5577;42.706;23.160;2023-04-22T01:08:50;93856.78;;;5.50;100.00
11049;BME280;5577;42.706;23.160;2023-04-22T01:11:34;93852.53;;;5.58;100.00
11049;BME280;5577;42.706;23.160;2023-04-22T01:14:19;93851.00;;;5.57;100.00
11049;BME280;5577;42.706;23.160;2023-04-22T01:17:03;93854.72;;;5.56;100.00
11049;BME280;5577;42.706;23.160;2023-04-22T01:19:47;93835.63;;;5.26;100.00
11049;BME280;5577;42.706;23.160;2023-04-22T01:22:35;93860.53;;;5.41;100.00
11049;BME280;5577;42.706;23.160;2023-04-22T01:25:20;93869.69;;;5.35;100.00
11049;BME280;5577;42.706;23.160;2023-04-22T01:28:04;93860.16;;;5.30;100.00
11049;BME280;5577;42.706;23.160;2023-04-22T01:30:48;93872.53;;;5.21;100.00
11049;BME280;5577;42.706;23.160;2023-04-22T01:33:32;93867.75;;;5.23;100.00
11049;BME280;5577;42.706;23.160;2023-04-22T01:36:16;93867.84;;;5.06;100.00
11049;BME280;5577;42.706;23.160;2023-04-22T01:39:00;93868.28;;;5.17;100.00
11049;BME280;5577;42.706;23.160;2023-04-22T01:41:45;93862.88;;;5.13;100.00
11049;BME280;5577;42.706;23.160;2023-04-22T01:44:29;93864.28;;;5.11;100.00
11049;BME280;5577;42.706;23.160;2023-04-22T01:47:13;93856.09;;;5.12;100.00
11049;BME280;5577;42.706;23.160;2023-04-22T01:49:57;93859.28;;;4.97;100.00
11049;BME280;5577;42.706;23.160;2023-04-22T01:52:41;93861.13;;;4.97;100.00
11049;BME280;5577;42.706;23.160;2023-04-22T01:55:25;93861.84;;;5.06;100.00
11049;BME280;5577;42.706;23.160;2023-04-22T01:58:09;93863.81;;;5.09;100.00
11049;BME280;5577;42.706;23.160;2023-04-22T02:00:53;93857.81;;;5.08;100.00
11049;BME280;5577;42.706;23.160;2023-04-22T02:03:37;93812.91;;;4.81;100.00
11049;BME280;5577;42.706;23.160;2023-04-22T02:06:21;93856.09;;;5.12;100.00
11049;BME280;5577;42.706;23.160;2023-04-22T02:09:05;93786.34;;;4.62;100.00
11049;BME280;5577;42.706;23.160;2023-04-22T02:11:49;93867.53;;;5.08;100.00
11049;BME280;5577;42.706;23.160;2023-04-22T02:14:33;93863.59;;;4.93;100.00
11049;BME280;5577;42.706;23.160;2023-04-22T02:17:17;93800.41;;;4.57;100.00
11049;BME280;5577;42.706;23.160;2023-04-22T02:20:02;93848.25;;;4.83;100.00
11049;BME280;5577;42.706;23.160;2023-04-22T02:22:47;93857.28;;;4.94;100.00
11049;BME280;5577;42.706;23.160;2023-04-22T02:25:31;93859.63;;;4.87;100.00
11049;BME280;5577;42.706;23.160;2023-04-22T02:28:15;93860.53;;;4.91;100.00
11049;BME280;5577;42.706;23.160;2023-04-22T02:30:59;93850.03;;;4.91;100.00
11049;BME280;5577;42.706;23.160;2023-04-22T02:33:43;93849.59;;;4.89;100.00
11049;BME280;5577;42.706;23.160;2023-04-22T02:36:27;93859.75;;;4.91;100.00
11049;BME280;5577;42.706;23.160;2023-04-22T02:39:11;93856.19;;;4.95;100.00
11049;BME280;5577;42.706;23.160;2023-04-22T02:41:55;93868.22;;;4.96;100.00
11049;BME280;5577;42.706;23.160;2023-04-22T02:44:39;93861.75;;;4.94;100.00
11049;BME280;5577;42.706;23.160;2023-04-22T02:47:23;93859.59;;;4.96;100.00
11049;BME280;5577;42.706;23.160;2023-04-22T02:50:07;93808.06;;;4.71;100.00
11049;BME280;5577;42.706;23.160;2023-04-22T02:52:52;93865.38;;;5.10;100.00
11049;BME280;5577;42.706;23.160;2023-04-22T02:55:35;93870.94;;;5.08;100.00
11049;BME280;5577;42.706;23.160;2023-04-22T02:58:19;93879.88;;;5.07;100.00
11049;BME280;5577;42.706;23.160;2023-04-22T03:01:03;93870.94;;;5.08;100.00
11049;BME280;5577;42.706;23.160;2023-04-22T03:03:48;93830.19;;;4.82;100.00
11049;BME280;5577;42.706;23.160;2023-04-22T03:06:32;93880.28;;;5.18;100.00
11049;BME280;5577;42.706;23.160;2023-04-22T03:09:16;93841.88;;;4.93;100.00
11049;BME280;5577;42.706;23.160;2023-04-22T03:12:00;93879.19;;;5.19;100.00
11049;BME280;5577;42.706;23.160;2023-04-22T03:14:45;93872.69;;;5.25;100.00
11049;BME280;5577;42.706;23.160;2023-04-22T03:17:29;93857.94;;;5.12;100.00
11049;BME280;5577;42.706;23.160;2023-04-22T03:20:14;93895.00;;;5.39;100.00
11049;BME280;5577;42.706;23.160;2023-04-22T03:22:58;93878.53;;;5.30;100.00
11049;BME280;5577;42.706;23.160;2023-04-22T03:25:41;93880.06;;;5.31;100.00
11049;BME280;5577;42.706;23.160;2023-04-22T03:28:25;93882.31;;;5.41;100.00
11049;BME280;5577;42.706;23.160;2023-04-22T03:31:09;93879.41;;;5.34;100.00
11049;BME280;5577;42.706;23.160;2023-04-22T03:33:54;93875.59;;;5.32;100.00
11049;BME280;5577;42.706;23.160;2023-04-22T03:36:38;93889.03;;;5.30;100.00
11049;BME280;5577;42.706;23.160;2023-04-22T03:39:21;93896.38;;;5.37;100.00
11049;BME280;5577;42.706;23.160;2023-04-22T03:42:05;93893.50;;;5.30;100.00
11049;BME280;5577;42.706;23.160;2023-04-22T03:44:49;93894.91;;;5.27;100.00
11049;BME280;5577;42.706;23.160;2023-04-22T03:47:33;93893.84;;;5.20;100.00
11049;BME280;5577;42.706;23.160;2023-04-22T03:50:17;93894.31;;;5.22;100.00
11049;BME280;5577;42.706;23.160;2023-04-22T03:53:01;93895.56;;;5.16;100.00
11049;BME280;5577;42.706;23.160;2023-04-22T03:55:45;93902.44;;;5.08;100.00
11049;BME280;5577;42.706;23.160;2023-04-22T03:58:30;93878.38;;;4.98;100.00
11049;BME280;5577;42.706;23.160;2023-04-22T04:01:13;93908.97;;;5.23;100.00
11049;BME280;5577;42.706;23.160;2023-04-22T04:03:57;93909.75;;;5.23;100.00
11049;BME280;5577;42.706;23.160;2023-04-22T04:06:41;93918.63;;;5.39;100.00
11049;BME280;5577;42.706;23.160;2023-04-22T04:09:26;93862.94;;;5.05;100.00
11049;BME280;5577;42.706;23.160;2023-04-22T04:12:10;93914.84;;;5.49;100.00
11049;BME280;5577;42.706;23.160;2023-04-22T04:14:54;93914.34;;;5.55;100.00
11049;BME280;5577;42.706;23.160;2023-04-22T04:17:37;93915.63;;;5.70;100.00
11049;BME280;5577;42.706;23.160;2023-04-22T04:20:22;93917.88;;;5.80;100.00
11049;BME280;5577;42.706;23.160;2023-04-22T04:23:06;93900.13;;;5.77;100.00
11049;BME280;5577;42.706;23.160;2023-04-22T04:25:51;93917.97;;;5.92;100.00
11049;BME280;5577;42.706;23.160;2023-04-22T04:28:35;93902.34;;;5.96;100.00
11049;BME280;5577;42.706;23.160;2023-04-22T04:31:19;93852.28;;;5.71;100.00
11049;BME280;5577;42.706;23.160;2023-04-22T04:34:04;93925.34;;;6.31;100.00
11049;BME280;5577;42.706;23.160;2023-04-22T04:36:48;93917.94;;;6.45;100.00
11049;BME280;5577;42.706;23.160;2023-04-22T04:39:32;93923.28;;;6.69;100.00
11049;BME280;5577;42.706;23.160;2023-04-22T04:42:16;93926.59;;;6.90;100.00
11049;BME280;5577;42.706;23.160;2023-04-22T04:45:00;93925.19;;;7.05;100.00
11049;BME280;5577;42.706;23.160;2023-04-22T04:47:45;93929.81;;;7.20;100.00
11049;BME280;5577;42.706;23.160;2023-04-22T04:50:29;93928.59;;;7.41;100.00
11049;BME280;5577;42.706;23.160;2023-04-22T04:53:13;93932.84;;;7.70;100.00
11049;BME280;5577;42.706;23.160;2023-04-22T04:55:57;93936.28;;;7.98;100.00
11049;BME280;5577;42.706;23.160;2023-04-22T04:58:41;93927.22;;;8.23;100.00
11049;BME280;5577;42.706;23.160;2023-04-22T05:01:24;93930.91;;;8.34;100.00
11049;BME280;5577;42.706;23.160;2023-04-22T05:04:08;93931.63;;;8.46;100.00
11049;BME280;5577;42.706;23.160;2023-04-22T05:06:52;93930.16;;;8.61;100.00
11049;BME280;5577;42.706;23.160;2023-04-22T05:09:37;93929.22;;;8.69;100.00
11049;BME280;5577;42.706;23.160;2023-04-22T05:12:21;93924.47;;;8.74;100.00
11049;BME280;5577;42.706;23.160;2023-04-22T05:15:05;93898.84;;;8.75;100.00
11049;BME280;5577;42.706;23.160;2023-04-22T05:17:50;93904.47;;;8.89;100.00
11049;BME280;5577;42.706;23.160;2023-04-22T05:20:34;93895.88;;;9.08;100.00
11049;BME280;5577;42.706;23.160;2023-04-22T05:23:17;93934.53;;;9.31;100.00
11049;BME280;5577;42.706;23.160;2023-04-22T05:26:01;93933.00;;;9.46;100.00
11049;BME280;5577;42.706;23.160;2023-04-22T05:28:45;93941.50;;;9.55;100.00
11049;BME280;5577;42.706;23.160;2023-04-22T05:31:29;93937.31;;;9.69;100.00
11049;BME280;5577;42.706;23.160;2023-04-22T05:34:13;93922.81;;;9.63;100.00
11049;BME280;5577;42.706;23.160;2023-04-22T05:36:57;93945.56;;;9.83;100.00
11049;BME280;5577;42.706;23.160;2023-04-22T05:39:41;93944.19;;;9.89;100.00
11049;BME280;5577;42.706;23.160;2023-04-22T05:42:25;93901.50;;;9.72;100.00
11049;BME280;5577;42.706;23.160;2023-04-22T05:45:09;93938.00;;;10.01;100.00
11049;BME280;5577;42.706;23.160;2023-04-22T05:47:53;93918.66;;;9.97;100.00
11049;BME280;5577;42.706;23.160;2023-04-22T05:50:37;93939.03;;;10.12;100.00
11049;BME280;5577;42.706;23.160;2023-04-22T05:53:21;93933.03;;;10.15;100.00
11049;BME280;5577;42.706;23.160;2023-04-22T05:56:05;93939.56;;;10.21;100.00
11049;BME280;5577;42.706;23.160;2023-04-22T05:58:49;93946.53;;;10.29;100.00
11049;BME280;5577;42.706;23.160;2023-04-22T06:01:35;93935.06;;;10.40;100.00
11049;BME280;5577;42.706;23.160;2023-04-22T06:04:19;93935.69;;;10.53;100.00
11049;BME280;5577;42.706;23.160;2023-04-22T06:07:03;93936.63;;;10.64;100.00
11049;BME280;5577;42.706;23.160;2023-04-22T06:09:47;93933.28;;;10.86;100.00
11049;BME280;5577;42.706;23.160;2023-04-22T06:12:32;93928.41;;;11.10;100.00
11049;BME280;5577;42.706;23.160;2023-04-22T06:15:17;93934.00;;;11.28;100.00
11049;BME280;5577;42.706;23.160;2023-04-22T06:18:01;93927.84;;;11.46;100.00
11049;BME280;5577;42.706;23.160;2023-04-22T06:20:45;93915.00;;;11.48;100.00
11049;BME280;5577;42.706;23.160;2023-04-22T06:23:29;93927.31;;;11.60;100.00
11049;BME280;5577;42.706;23.160;2023-04-22T06:26:13;93933.22;;;11.73;100.00
11049;BME280;5577;42.706;23.160;2023-04-22T06:28:57;93931.56;;;11.91;100.00
11049;BME280;5577;42.706;23.160;2023-04-22T06:31:41;93901.78;;;11.75;100.00
11049;BME280;5577;42.706;23.160;2023-04-22T06:34:25;93908.47;;;11.91;100.00
11049;BME280;5577;42.706;23.160;2023-04-22T06:37:09;93933.13;;;12.21;100.00
11049;BME280;5577;42.706;23.160;2023-04-22T06:39:53;93887.19;;;12.17;100.00
11049;BME280;5577;42.706;23.160;2023-04-22T06:42:37;93922.94;;;12.27;100.00
11049;BME280;5577;42.706;23.160;2023-04-22T06:45:21;93908.94;;;12.26;100.00
11049;BME280;5577;42.706;23.160;2023-04-22T06:48:05;93923.19;;;12.44;100.00
11049;BME280;5577;42.706;23.160;2023-04-22T06:50:49;93929.75;;;12.57;100.00
11049;BME280;5577;42.706;23.160;2023-04-22T06:53:33;93932.56;;;12.71;100.00
11049;BME280;5577;42.706;23.160;2023-04-22T06:56:17;93941.47;;;12.86;100.00
11049;BME280;5577;42.706;23.160;2023-04-22T06:59:01;93931.59;;;12.86;100.00
11049;BME280;5577;42.706;23.160;2023-04-22T07:01:45;93929.63;;;13.13;100.00
11049;BME280;5577;42.706;23.160;2023-04-22T07:04:29;93939.53;;;13.19;100.00
11049;BME280;5577;42.706;23.160;2023-04-22T07:07:14;93931.34;;;13.38;100.00
11049;BME280;5577;42.706;23.160;2023-04-22T07:09:59;93942.84;;;13.49;100.00
11049;BME280;5577;42.706;23.160;2023-04-22T07:12:42;93941.97;;;13.38;100.00
11049;BME280;5577;42.706;23.160;2023-04-22T07:15:28;93934.03;;;13.42;100.00
11049;BME280;5577;42.706;23.160;2023-04-22T07:18:12;93943.16;;;13.41;100.00
11049;BME280;5577;42.706;23.160;2023-04-22T07:20:56;93940.56;;;13.51;100.00
11049;BME280;5577;42.706;23.160;2023-04-22T07:23:40;93940.25;;;13.56;100.00
11049;BME280;5577;42.706;23.160;2023-04-22T07:26:24;93925.34;;;13.48;100.00
11049;BME280;5577;42.706;23.160;2023-04-22T07:29:09;93947.63;;;13.80;100.00
11049;BME280;5577;42.706;23.160;2023-04-22T07:31:53;93934.09;;;13.99;100.00
11049;BME280;5577;42.706;23.160;2023-04-22T07:34:37;93942.91;;;14.10;100.00
11049;BME280;5577;42.706;23.160;2023-04-22T07:37:21;93942.81;;;13.96;100.00
11049;BME280;5577;42.706;23.160;2023-04-22T07:40:06;93931.44;;;13.99;100.00
11049;BME280;5577;42.706;23.160;2023-04-22T07:42:54;93949.94;;;14.43;100.00
11049;BME280;5577;42.706;23.160;2023-04-22T07:45:38;93942.78;;;14.65;100.00
11049;BME280;5577;42.706;23.160;2023-04-22T07:48:22;93945.03;;;14.49;100.00
11049;BME280;5577;42.706;23.160;2023-04-22T07:51:06;93945.16;;;14.08;100.00
11049;BME280;5577;42.706;23.160;2023-04-22T07:53:50;93911.84;;;14.28;100.00
11049;BME280;5577;42.706;23.160;2023-04-22T07:56:34;93873.13;;;14.49;100.00
11049;BME280;5577;42.706;23.160;2023-04-22T07:59:17;93939.50;;;15.03;97.27
11049;BME280;5577;42.706;23.160;2023-04-22T08:02:01;93924.66;;;15.02;98.90
11049;BME280;5577;42.706;23.160;2023-04-22T08:04:45;93928.09;;;15.20;91.29
11049;BME280;5577;42.706;23.160;2023-04-22T08:07:29;93930.34;;;14.93;87.98
11049;BME280;5577;42.706;23.160;2023-04-22T08:10:13;93934.53;;;15.01;91.05
11049;BME280;5577;42.706;23.160;2023-04-22T08:12:57;93930.00;;;15.16;93.29
11049;BME280;5577;42.706;23.160;2023-04-22T08:15:41;93926.94;;;15.14;91.05
11049;BME280;5577;42.706;23.160;2023-04-22T08:18:24;93919.78;;;15.42;91.94
11049;BME280;5577;42.706;23.160;2023-04-22T08:21:09;93924.31;;;15.98;88.18
11049;BME280;5577;42.706;23.160;2023-04-22T08:23:53;93930.31;;;16.37;77.31
11049;BME280;5577;42.706;23.160;2023-04-22T08:26:37;93926.44;;;16.69;72.50
11049;BME280;5577;42.706;23.160;2023-04-22T08:29:22;93926.38;;;16.83;70.51
11049;BME280;5577;42.706;23.160;2023-04-22T08:32:06;93918.63;;;17.03;70.77
11049;BME280;5577;42.706;23.160;2023-04-22T08:34:50;93919.50;;;16.82;69.11
11049;BME280;5577;42.706;23.160;2023-04-22T08:37:34;93916.91;;;16.58;65.73
11049;BME280;5577;42.706;23.160;2023-04-22T08:40:18;93912.00;;;16.56;69.22
11049;BME280;5577;42.706;23.160;2023-04-22T08:43:02;93916.16;;;16.61;68.54
11049;BME280;5577;42.706;23.160;2023-04-22T08:45:47;93908.53;;;17.28;69.80
11049;BME280;5577;42.706;23.160;2023-04-22T08:48:32;93898.63;;;17.80;64.52
11049;BME280;5577;42.706;23.160;2023-04-22T08:51:16;93918.03;;;17.91;61.58
11049;BME280;5577;42.706;23.160;2023-04-22T08:54:01;93906.72;;;18.13;62.25
11049;BME280;5577;42.706;23.160;2023-04-22T08:56:45;93908.50;;;18.60;58.47
11049;BME280;5577;42.706;23.160;2023-04-22T08:59:30;93875.31;;;17.73;55.85
11049;BME280;5577;42.706;23.160;2023-04-22T09:02:22;93903.81;;;16.88;59.44
11049;BME280;5577;42.706;23.160;2023-04-22T09:05:08;93905.38;;;17.47;60.12
11049;BME280;5577;42.706;23.160;2023-04-22T09:07:52;93897.38;;;17.44;54.85
11049;BME280;5577;42.706;23.160;2023-04-22T09:10:37;93897.69;;;17.53;57.30
11049;BME280;5577;42.706;23.160;2023-04-22T09:13:21;93882.06;;;18.29;53.75
11049;BME280;5577;42.706;23.160;2023-04-22T09:16:06;93887.38;;;17.48;55.12
11049;BME280;5577;42.706;23.160;2023-04-22T09:18:50;93896.22;;;17.89;56.17
11049;BME280;5577;42.706;23.160;2023-04-22T09:21:34;93884.75;;;18.92;55.53
11049;BME280;5577;42.706;23.160;2023-04-22T09:24:18;93884.31;;;19.73;53.17
11049;BME280;5577;42.706;23.160;2023-04-22T09:27:03;93882.00;;;19.75;52.85
11049;BME280;5577;42.706;23.160;2023-04-22T09:29:48;93877.66;;;19.82;51.88
11049;BME280;5577;42.706;23.160;2023-04-22T09:32:32;93875.78;;;19.55;52.99
11049;BME280;5577;42.706;23.160;2023-04-22T09:35:22;93853.44;;;18.82;52.35
11049;BME280;5577;42.706;23.160;2023-04-22T09:38:08;93862.44;;;18.99;56.83
11049;BME280;5577;42.706;23.160;2023-04-22T09:40:52;93864.59;;;19.34;51.99
11049;BME280;5577;42.706;23.160;2023-04-22T09:43:37;93831.19;;;19.61;50.68
11049;BME280;5577;42.706;23.160;2023-04-22T09:46:22;93852.22;;;20.09;48.77
11049;BME280;5577;42.706;23.160;2023-04-22T09:49:07;93845.78;;;20.46;47.84
11049;BME280;5577;42.706;23.160;2023-04-22T09:51:56;93857.00;;;19.32;47.00
11049;BME280;5577;42.706;23.160;2023-04-22T09:54:48;93853.56;;;18.45;47.06
11049;BME280;5577;42.706;23.160;2023-04-22T09:57:38;93864.50;;;18.21;46.62
11049;BME280;5577;42.706;23.160;2023-04-22T10:00:29;93859.00;;;18.38;46.92
11049;BME280;5577;42.706;23.160;2023-04-22T10:03:14;93866.09;;;18.52;48.17
11049;BME280;5577;42.706;23.160;2023-04-22T10:05:58;93861.56;;;18.12;50.31
11049;BME280;5577;42.706;23.160;2023-04-22T10:08:43;93862.03;;;17.63;53.92
11049;BME280;5577;42.706;23.160;2023-04-22T10:11:27;93852.03;;;17.19;55.46
11049;BME280;5577;42.706;23.160;2023-04-22T10:14:11;93827.47;;;18.12;55.26
11049;BME280;5577;42.706;23.160;2023-04-22T10:16:59;93841.75;;;19.49;52.96
11049;BME280;5577;42.706;23.160;2023-04-22T10:19:46;93853.25;;;19.96;48.73
11049;BME280;5577;42.706;23.160;2023-04-22T10:22:33;93837.72;;;18.54;48.93
11049;BME280;5577;42.706;23.160;2023-04-22T10:25:22;93853.28;;;17.99;51.32
11049;BME280;5577;42.706;23.160;2023-04-22T10:28:09;93841.03;;;18.32;50.79
11049;BME280;5577;42.706;23.160;2023-04-22T10:30:53;93839.44;;;21.11;46.45
11049;BME280;5577;42.706;23.160;2023-04-22T10:33:38;93839.94;;;23.38;41.10
11049;BME280;5577;42.706;23.160;2023-04-22T10:36:22;93840.53;;;24.47;37.47
11049;BME280;5577;42.706;23.160;2023-04-22T10:42:11;93832.69;;;25.14;35.72
11049;BME280;5577;42.706;23.160;2023-04-22T10:45:03;93826.44;;;24.74;35.99
11049;BME280;5577;42.706;23.160;2023-04-22T10:47:47;93827.50;;;24.98;34.94
11049;BME280;5577;42.706;23.160;2023-04-22T10:50:31;93809.91;;;25.33;34.24
11049;BME280;5577;42.706;23.160;2023-04-22T10:53:35;93822.81;;;25.69;33.83
11049;BME280;5577;42.706;23.160;2023-04-22T10:56:20;93828.97;;;25.60;32.58
11049;BME280;5577;42.706;23.160;2023-04-22T10:59:14;93816.84;;;26.73;31.11
11049;BME280;5577;42.706;23.160;2023-04-22T11:02:04;93819.38;;;28.01;29.71
11049;BME280;5577;42.706;23.160;2023-04-22T11:04:49;93809.06;;;29.10;29.21
11049;BME280;5577;42.706;23.160;2023-04-22T11:07:35;93806.41;;;28.20;28.69
11049;BME280;5577;42.706;23.160;2023-04-22T11:10:37;93814.88;;;23.12;33.59
11049;BME280;5577;42.706;23.160;2023-04-22T11:13:24;93812.19;;;24.61;32.91
11049;BME280;5577;42.706;23.160;2023-04-22T11:16:09;93810.72;;;28.26;29.37
11049;BME280;5577;42.706;23.160;2023-04-22T11:18:54;93801.91;;;28.55;27.38
11049;BME280;5577;42.706;23.160;2023-04-22T11:21:39;93812.50;;;29.40;26.88
11049;BME280;5577;42.706;23.160;2023-04-22T11:24:23;93818.28;;;28.46;27.36
11049;BME280;5577;42.706;23.160;2023-04-22T11:27:06;93823.97;;;28.33;26.27
11049;BME280;5577;42.706;23.160;2023-04-22T11:30:01;93792.56;;;29.34;26.01
11049;BME280;5577;42.706;23.160;2023-04-22T11:32:49;93836.16;;;26.21;28.74
11049;BME280;5577;42.706;23.160;2023-04-22T11:35:33;93805.09;;;24.11;32.45
11049;BME280;5577;42.706;23.160;2023-04-22T11:38:17;93854.59;;;20.85;38.24
11049;BME280;5577;42.706;23.160;2023-04-22T11:41:01;93864.59;;;19.07;42.77
11049;BME280;5577;42.706;23.160;2023-04-22T11:43:47;93869.75;;;19.48;44.30
11049;BME280;5577;42.706;23.160;2023-04-22T11:46:31;93867.97;;;22.90;38.96
11049;BME280;5577;42.706;23.160;2023-04-22T11:49:21;93871.69;;;24.52;36.74
11049;BME280;5577;42.706;23.160;2023-04-22T11:52:05;93865.38;;;25.50;34.91
11049;BME280;5577;42.706;23.160;2023-04-22T11:54:48;93854.84;;;26.55;33.68
11049;BME280;5577;42.706;23.160;2023-04-22T11:57:36;93867.47;;;28.19;31.15
11049;BME280;5577;42.706;23.160;2023-04-22T12:00:20;93861.44;;;28.62;30.58
11049;BME280;5577;42.706;23.160;2023-04-22T12:03:10;93872.53;;;26.86;31.43
11049;BME280;5577;42.706;23.160;2023-04-22T12:06:00;93868.28;;;26.13;33.25
11049;BME280;5577;42.706;23.160;2023-04-22T12:08:44;93865.72;;;26.82;32.00
11049;BME280;5577;42.706;23.160;2023-04-22T12:11:32;93879.09;;;27.21;32.38
11049;BME280;5577;42.706;23.160;2023-04-22T12:14:16;93871.75;;;26.32;32.72
11049;BME280;5577;42.706;23.160;2023-04-22T12:17:04;93849.91;;;22.17;39.20
11049;BME280;5577;42.706;23.160;2023-04-22T12:19:55;93884.34;;;22.83;39.76
11049;BME280;5577;42.706;23.160;2023-04-22T12:22:39;93839.47;;;23.52;37.88
11049;BME280;5577;42.706;23.160;2023-04-22T12:25:23;93877.41;;;18.96;45.48
11049;BME280;5577;42.706;23.160;2023-04-22T12:28:07;93880.38;;;22.02;41.83
11049;BME280;5577;42.706;23.160;2023-04-22T12:30:51;93838.84;;;24.84;35.52
11049;BME280;5577;42.706;23.160;2023-04-22T12:33:36;93863.53;;;24.64;35.93
11049;BME280;5577;42.706;23.160;2023-04-22T12:36:21;93862.97;;;24.14;36.84
11049;BME280;5577;42.706;23.160;2023-04-22T12:39:05;93853.34;;;24.68;36.08
11049;BME280;5577;42.706;23.160;2023-04-22T12:41:49;93859.56;;;24.56;36.99
11049;BME280;5577;42.706;23.160;2023-04-22T12:44:34;93844.38;;;24.59;36.56
11049;BME280;5577;42.706;23.160;2023-04-22T12:47:18;93861.81;;;24.58;35.99
11049;BME280;5577;42.706;23.160;2023-04-22T12:50:03;93865.72;;;23.01;38.56
11049;BME280;5577;42.706;23.160;2023-04-22T12:52:49;93847.97;;;24.00;37.06
11049;BME280;5577;42.706;23.160;2023-04-22T12:55:33;93834.00;;;23.43;36.99
11049;BME280;5577;42.706;23.160;2023-04-22T12:58:18;93862.69;;;24.33;36.48
11049;BME280;5577;42.706;23.160;2023-04-22T13:01:02;93853.22;;;23.45;37.35
11049;BME280;5577;42.706;23.160;2023-04-22T13:03:46;93856.53;;;24.33;36.50
11049;BME280;5577;42.706;23.160;2023-04-22T13:06:35;93856.66;;;24.94;35.81
11049;BME280;5577;42.706;23.160;2023-04-22T13:09:20;93854.66;;;24.85;35.96
11049;BME280;5577;42.706;23.160;2023-04-22T13:12:04;93859.16;;;21.40;40.57
11049;BME280;5577;42.706;23.160;2023-04-22T13:14:48;93849.63;;;21.67;41.32
11049;BME280;5577;42.706;23.160;2023-04-22T13:17:33;93849.09;;;22.49;38.91
11049;BME280;5577;42.706;23.160;2023-04-22T13:20:17;93848.84;;;23.85;37.58
11049;BME280;5577;42.706;23.160;2023-04-22T13:23:02;93852.53;;;25.11;35.51
11049;BME280;5577;42.706;23.160;2023-04-22T13:25:47;93853.38;;;25.60;34.39
11049;BME280;5577;42.706;23.160;2023-04-22T13:28:31;93851.22;;;25.16;33.79
11049;BME280;5577;42.706;23.160;2023-04-22T13:31:15;93836.66;;;24.91;34.06
11049;BME280;5577;42.706;23.160;2023-04-22T13:33:59;93843.75;;;23.87;35.57
11049;BME280;5577;42.706;23.160;2023-04-22T13:36:43;93847.34;;;22.96;36.23
11049;BME280;5577;42.706;23.160;2023-04-22T13:39:28;93848.56;;;23.08;36.09
11049;BME280;5577;42.706;23.160;2023-04-22T13:42:12;93849.47;;;25.00;34.18
11049;BME280;5577;42.706;23.160;2023-04-22T13:44:56;93864.19;;;21.38;39.05
11049;BME280;5577;42.706;23.160;2023-04-22T13:47:40;93849.09;;;23.65;35.49
11049;BME280;5577;42.706;23.160;2023-04-22T13:50:24;93823.00;;;23.25;35.84
11049;BME280;5577;42.706;23.160;2023-04-22T13:53:09;93819.41;;;25.95;31.57
11049;BME280;5577;42.706;23.160;2023-04-22T13:55:54;93843.66;;;25.41;31.41
11049;BME280;5577;42.706;23.160;2023-04-22T13:58:39;93849.88;;;20.89;38.02
11049;BME280;5577;42.706;23.160;2023-04-22T14:01:23;93847.97;;;20.70;39.35
11049;BME280;5577;42.706;23.160;2023-04-22T14:04:08;93843.81;;;25.16;33.15
11049;BME280;5577;42.706;23.160;2023-04-22T14:06:52;93845.97;;;26.63;30.89
11049;BME280;5577;42.706;23.160;2023-04-22T14:09:36;93839.88;;;27.04;29.58
11049;BME280;5577;42.706;23.160;2023-04-22T14:12:20;93844.09;;;26.96;30.26
11049;BME280;5577;42.706;23.160;2023-04-22T14:15:04;93842.81;;;23.93;32.50
11049;BME280;5577;42.706;23.160;2023-04-22T14:17:49;93837.94;;;20.90;37.93
11049;BME280;5577;42.706;23.160;2023-04-22T14:20:33;93848.81;;;19.39;40.63
11049;BME280;5577;42.706;23.160;2023-04-22T14:23:18;93843.78;;;17.91;42.75
11049;BME280;5577;42.706;23.160;2023-04-22T14:26:03;93837.22;;;18.63;43.17
11049;BME280;5577;42.706;23.160;2023-04-22T14:28:47;93844.47;;;20.15;40.13
11049;BME280;5577;42.706;23.160;2023-04-22T14:31:31;93839.47;;;19.70;39.81